Time;durP1;ratioP1;P1;durP2;ratioP2;P2;SDS_P1;SDS_P2;PMS_P1;PMS_P2;Temp;Humidity;BMP_temperature;BMP_pressure;BME280_temperature;BME280_humidity;BME280_pressure;Samples;Min_cycle;Max_cycle;Signal;HPM_P1;HPM_P2
2023/07/14 00:01:27;;;;;;;2.63;1.15;;;29.10;69.50;;;;;;4963165;28;20197;-86
2023/07/14 00:03:55;;;;;;;0.98;0.93;;;29.10;69.70;;;;;;4967433;28;20245;-84
2023/07/14 00:06:25;;;;;;;0.45;0.43;;;29.00;70.10;;;;;;4965294;28;20202;-85
2023/07/14 00:08:54;;;;;;;2.42;1.20;;;29.00;69.90;;;;;;4961494;28;20203;-84
2023/07/14 00:11:25;;;;;;;1.10;1.00;;;29.00;70.10;;;;;;4962785;28;20540;-86
2023/07/14 00:13:54;;;;;;;0.55;0.50;;;28.90;70.10;;;;;;4966187;28;20190;-86
2023/07/14 00:16:27;;;;;;;5.93;1.45;;;28.90;70.20;;;;;;4967874;28;20202;-86
2023/07/14 00:18:56;;;;;;;0.57;0.57;;;28.90;70.30;;;;;;4966746;28;20197;-86
2023/07/14 00:21:27;;;;;;;0.95;0.70;;;28.80;70.40;;;;;;4964278;28;20194;-85
2023/07/14 00:24:00;;;;;;;2.35;1.10;;;28.80;71.10;;;;;;4963673;28;20208;-86
2023/07/14 00:26:30;;;;;;;1.20;1.08;;;28.80;71.50;;;;;;4963301;28;20200;-85
2023/07/14 00:29:19;;;;;;;1.08;0.98;;;28.70;72.00;;;;;;4967577;28;20197;-86
2023/07/14 00:31:47;;;;;;;2.03;1.35;;;28.70;73.80;;;;;;4958355;28;20225;-85
2023/07/14 00:34:16;;;;;;;2.17;1.05;;;28.70;75.20;;;;;;4967230;28;20229;-86
2023/07/14 00:36:45;;;;;;;1.38;0.88;;;28.70;76.40;;;;;;4961318;28;20206;-86
2023/07/14 00:39:14;;;;;;;2.45;1.98;;;28.60;77.70;;;;;;4961235;28;20194;-85
2023/07/14 00:41:43;;;;;;;4.68;2.47;;;28.50;79.70;;;;;;4967538;28;20206;-85
2023/07/14 00:44:14;;;;;;;5.15;2.55;;;28.50;80.00;;;;;;4967297;28;20194;-86
2023/07/14 00:46:45;;;;;;;1.05;0.85;;;28.50;79.70;;;;;;4968424;28;20674;-84
2023/07/14 00:49:20;;;;;;;1.65;0.70;;;28.40;79.40;;;;;;4960968;28;20197;-85
2023/07/14 00:51:50;;;;;;;0.47;0.47;;;28.40;78.80;;;;;;4967530;28;20206;-84
2023/07/14 00:54:26;;;;;;;2.03;1.35;;;28.30;78.50;;;;;;4968447;28;20198;-86
2023/07/14 00:56:55;;;;;;;1.38;1.23;;;28.20;77.90;;;;;;4965567;28;20611;-86
2023/07/14 00:59:34;;;;;;;0.55;0.52;;;28.20;77.50;;;;;;4960870;28;20566;-86
2023/07/14 01:02:20;;;;;;;0.60;0.60;;;28.20;77.20;;;;;;4952331;28;20194;-86
2023/07/14 01:04:53;;;;;;;0.70;0.60;;;28.20;76.90;;;;;;4963193;28;21097;-86
2023/07/14 01:07:28;;;;;;;1.42;1.20;;;28.20;76.50;;;;;;4965735;28;20270;-83
2023/07/14 01:09:59;;;;;;;0.93;0.93;;;28.20;75.80;;;;;;4963583;28;20203;-86
2023/07/14 01:12:29;;;;;;;0.43;0.40;;;28.10;75.10;;;;;;4969054;28;20212;-84
2023/07/14 01:14:58;;;;;;;0.40;0.40;;;28.10;74.10;;;;;;4966441;28;20655;-85
2023/07/14 01:17:28;;;;;;;0.40;0.40;;;28.10;73.50;;;;;;4967833;28;20198;-86
2023/07/14 01:20:00;;;;;;;0.60;0.60;;;28.00;73.00;;;;;;4964145;28;20565;-87
2023/07/14 01:22:40;;;;;;;1.70;1.27;;;28.00;73.30;;;;;;4966039;28;20202;-84
2023/07/14 01:25:24;;;;;;;1.42;0.80;;;28.00;74.10;;;;;;4967650;28;20554;-86
2023/07/14 01:27:54;;;;;;;2.15;1.20;;;28.00;75.10;;;;;;4965433;28;20198;-86
2023/07/14 01:30:22;;;;;;;2.25;0.70;;;28.00;75.20;;;;;;4966301;28;20199;-86
2023/07/14 01:32:51;;;;;;;1.50;0.47;;;28.00;75.90;;;;;;4966952;28;20238;-85
2023/07/14 01:35:26;;;;;;;0.93;0.70;;;28.00;76.10;;;;;;4965505;28;20743;-84
2023/07/14 01:37:54;;;;;;;1.35;1.15;;;28.00;76.30;;;;;;4969580;28;20197;-86
2023/07/14 01:40:23;;;;;;;1.23;1.13;;;28.00;77.00;;;;;;4962306;28;20201;-84
2023/07/14 01:42:57;;;;;;;0.60;0.47;;;27.90;79.10;;;;;;4960455;28;20202;-84
2023/07/14 01:45:31;;;;;;;2.47;1.52;;;27.90;80.20;;;;;;4965176;28;20299;-83
2023/07/14 01:48:04;;;;;;;1.27;0.65;;;27.90;80.30;;;;;;4961102;28;20196;-84
2023/07/14 01:50:37;;;;;;;0.65;0.40;;;28.00;79.90;;;;;;4967663;28;20335;-85
2023/07/14 01:53:10;;;;;;;1.40;0.95;;;27.90;79.70;;;;;;4969720;28;20574;-82
2023/07/14 01:55:41;;;;;;;0.70;0.52;;;28.00;80.10;;;;;;4964929;28;20194;-84
2023/07/14 01:58:15;;;;;;;3.05;2.33;;;28.00;79.80;;;;;;4970153;28;20620;-84
2023/07/14 02:00:46;;;;;;;2.03;1.30;;;27.90;80.00;;;;;;4965280;28;20220;-86
2023/07/14 02:03:18;;;;;;;4.28;1.98;;;27.90;80.20;;;;;;4967837;28;20193;-85
2023/07/14 02:05:48;;;;;;;0.70;0.70;;;27.90;80.00;;;;;;4968172;28;20276;-87
2023/07/14 02:08:23;;;;;;;6.65;0.52;;;27.90;80.30;;;;;;4968072;28;20197;-86
2023/07/14 02:10:52;;;;;;;0.30;0.25;;;27.90;78.70;;;;;;4963685;28;20855;-84
2023/07/14 02:13:24;;;;;;;0.70;0.63;;;27.70;77.70;;;;;;4964351;28;20710;-85
2023/07/14 02:15:54;;;;;;;1.27;0.75;;;27.80;77.30;;;;;;4964291;28;20240;-84
2023/07/14 02:18:29;;;;;;;4.25;1.75;;;27.70;77.10;;;;;;4953352;28;20647;-85
2023/07/14 02:20:59;;;;;;;3.17;1.13;;;27.70;76.90;;;;;;4963854;28;20225;-85
2023/07/14 02:23:29;;;;;;;0.57;0.57;;;27.70;76.70;;;;;;4964040;28;20198;-85
2023/07/14 02:26:08;;;;;;;1.20;1.10;;;27.70;76.30;;;;;;4963184;28;20203;-84
2023/07/14 02:28:38;;;;;;;0.73;0.38;;;27.70;76.30;;;;;;4968851;28;20539;-84
2023/07/14 02:31:15;;;;;;;0.73;0.70;;;27.70;76.10;;;;;;4966475;28;20190;-86
2023/07/14 02:33:46;;;;;;;0.20;0.20;;;27.60;75.60;;;;;;4964141;28;20341;-85
2023/07/14 02:36:23;;;;;;;0.20;0.20;;;27.60;75.20;;;;;;4966558;28;20678;-85
2023/07/14 02:38:55;;;;;;;0.45;0.45;;;27.60;75.50;;;;;;4961040;28;20597;-86
2023/07/14 02:41:26;;;;;;;0.20;0.20;;;27.60;75.00;;;;;;4948556;28;20198;-85
2023/07/14 02:44:02;;;;;;;0.57;0.50;;;27.50;75.10;;;;;;4967863;28;20194;-86
2023/07/14 02:46:38;;;;;;;0.50;0.50;;;27.50;75.00;;;;;;4969269;28;20200;-84
2023/07/14 02:49:08;;;;;;;0.38;0.30;;;27.50;75.10;;;;;;4965766;28;20560;-85
2023/07/14 02:51:37;;;;;;;0.50;0.40;;;27.50;75.80;;;;;;4965452;28;20226;-86
2023/07/14 02:54:06;;;;;;;0.32;0.32;;;27.40;76.00;;;;;;4952733;28;20218;-85
2023/07/14 02:56:35;;;;;;;0.40;0.38;;;27.40;75.90;;;;;;4946599;28;20198;-84
2023/07/14 02:59:05;;;;;;;0.32;0.32;;;27.40;75.90;;;;;;4961641;28;20198;-87
2023/07/14 03:01:34;;;;;;;0.40;0.40;;;27.30;75.50;;;;;;4964558;28;20190;-84
2023/07/14 03:04:03;;;;;;;0.20;0.20;;;27.20;74.50;;;;;;4966089;28;20202;-86
2023/07/14 03:06:31;;;;;;;0.20;0.20;;;27.20;74.40;;;;;;4968635;28;20661;-85
2023/07/14 03:08:59;;;;;;;0.90;0.50;;;27.30;74.20;;;;;;4966668;28;20581;-86
2023/07/14 03:11:28;;;;;;;0.20;0.20;;;27.20;73.40;;;;;;4967395;28;20194;-85
2023/07/14 03:13:56;;;;;;;0.38;0.38;;;27.30;73.30;;;;;;4967345;28;20636;-85
2023/07/14 03:16:27;;;;;;;0.45;0.45;;;27.30;73.30;;;;;;4968727;28;20197;-84
2023/07/14 03:18:57;;;;;;;0.20;0.20;;;27.30;73.30;;;;;;4951332;28;20190;-84
2023/07/14 03:21:25;;;;;;;0.77;0.77;;;27.20;73.20;;;;;;4962833;28;20202;-85
2023/07/14 03:23:54;;;;;;;0.15;0.15;;;27.20;73.20;;;;;;4959095;28;21088;-86
2023/07/14 03:26:22;;;;;;;0.20;0.20;;;27.30;73.10;;;;;;4964083;28;20563;-84
2023/07/14 03:28:50;;;;;;;0.10;0.10;;;27.30;73.00;;;;;;4968531;28;20457;-85
2023/07/14 03:31:19;;;;;;;0.20;0.20;;;27.30;73.00;;;;;;4960196;28;20198;-85
2023/07/14 03:33:48;;;;;;;5.40;1.40;;;27.30;72.70;;;;;;4968267;28;20225;-85
2023/07/14 03:36:20;;;;;;;0.85;0.57;;;27.30;72.10;;;;;;4967423;28;20198;-87
2023/07/14 03:39:25;;;;;;;0.80;0.75;;;27.20;71.50;;;;;;4969310;28;20801;-85
2023/07/14 03:41:54;;;;;;;1.15;0.68;;;27.20;71.00;;;;;;4964772;28;20308;-85
2023/07/14 03:44:23;;;;;;;0.65;0.40;;;27.10;70.20;;;;;;4964180;28;20209;-85
2023/07/14 03:46:51;;;;;;;1.50;0.70;;;27.00;70.10;;;;;;4947536;28;20194;-83
2023/07/14 03:49:22;;;;;;;0.88;0.75;;;26.90;73.00;;;;;;4967331;28;20675;-83
2023/07/14 03:51:51;;;;;;;0.52;0.30;;;26.80;78.40;;;;;;4961981;28;20553;-84
2023/07/14 03:54:19;;;;;;;0.38;0.38;;;26.60;81.10;;;;;;4965478;28;20237;-84
2023/07/14 03:56:48;;;;;;;1.00;0.63;;;26.30;81.50;;;;;;4963257;28;20238;-85
2023/07/14 03:59:16;;;;;;;0.50;0.50;;;26.10;81.00;;;;;;4967616;28;20202;-81
2023/07/14 04:01:45;;;;;;;0.40;0.40;;;25.80;81.60;;;;;;4961933;28;20209;-82
2023/07/14 04:04:13;;;;;;;0.40;0.40;;;25.60;81.70;;;;;;4963929;28;20193;-80
2023/07/14 04:06:43;;;;;;;0.52;0.52;;;25.50;82.70;;;;;;4959291;28;20331;-80
2023/07/14 04:09:11;;;;;;;0.55;0.50;;;25.40;83.50;;;;;;4968254;28;20506;-83
2023/07/14 04:11:40;;;;;;;5.10;0.95;;;25.20;83.90;;;;;;4968974;28;20193;-82
2023/07/14 04:14:09;;;;;;;1.08;0.60;;;25.10;83.80;;;;;;4967063;28;20224;-82
2023/07/14 04:16:37;;;;;;;0.43;0.38;;;25.00;83.50;;;;;;4963088;28;20249;-83
2023/07/14 04:19:06;;;;;;;1.05;0.95;;;25.00;84.10;;;;;;4957160;28;20249;-82
2023/07/14 04:21:35;;;;;;;0.77;0.68;;;24.90;84.40;;;;;;4966603;28;20190;-83
2023/07/14 04:24:05;;;;;;;0.20;0.20;;;24.80;83.50;;;;;;4964692;28;20298;-82
2023/07/14 04:26:34;;;;;;;6.22;1.35;;;24.80;83.70;;;;;;4964802;28;20655;-82
2023/07/14 04:29:05;;;;;;;0.40;0.40;;;24.70;83.80;;;;;;4964700;28;20225;-83
2023/07/14 04:31:34;;;;;;;1.75;1.35;;;24.70;84.80;;;;;;4959921;28;20629;-83
2023/07/14 04:34:02;;;;;;;0.40;0.40;;;24.60;85.20;;;;;;4966430;28;20225;-82
2023/07/14 04:36:30;;;;;;;0.60;0.60;;;24.50;85.50;;;;;;4969270;28;20287;-82
2023/07/14 04:39:06;;;;;;;1.27;1.17;;;24.50;85.30;;;;;;4963014;28;20225;-83
2023/07/14 04:41:36;;;;;;;0.32;0.32;;;24.50;86.60;;;;;;4965381;28;20199;-84
2023/07/14 04:44:08;;;;;;;0.40;0.30;;;24.40;86.80;;;;;;4964350;28;20210;-84
2023/07/14 04:46:38;;;;;;;0.25;0.25;;;24.40;86.40;;;;;;4972938;28;20327;-87
2023/07/14 04:49:07;;;;;;;1.17;0.50;;;24.30;86.90;;;;;;4969547;28;20204;-83
2023/07/14 04:51:36;;;;;;;0.20;0.20;;;24.30;87.50;;;;;;4969824;28;20201;-83
2023/07/14 04:54:07;;;;;;;0.85;0.85;;;24.30;87.60;;;;;;4965373;28;20225;-85
2023/07/14 04:56:37;;;;;;;0.65;0.63;;;24.30;88.00;;;;;;4969876;28;20201;-84
2023/07/14 04:59:07;;;;;;;3.80;0.73;;;24.30;89.50;;;;;;4973589;28;20197;-86
2023/07/14 05:01:35;;;;;;;1.05;0.85;;;24.20;89.70;;;;;;4967985;28;20224;-85
2023/07/14 05:04:04;;;;;;;1.73;1.08;;;24.20;90.10;;;;;;4967030;28;20256;-84
2023/07/14 05:06:33;;;;;;;1.25;0.88;;;24.20;90.80;;;;;;4950476;28;20647;-85
2023/07/14 05:09:01;;;;;;;0.93;0.47;;;24.20;90.70;;;;;;4968351;28;20227;-85
2023/07/14 05:11:33;;;;;;;0.68;0.68;;;24.20;90.90;;;;;;4969409;28;20198;-87
2023/07/14 05:14:04;;;;;;;1.58;0.77;;;24.20;90.80;;;;;;4969193;28;20551;-84
2023/07/14 05:16:32;;;;;;;0.30;0.30;;;24.20;91.10;;;;;;4969972;28;20201;-87
2023/07/14 05:19:01;;;;;;;0.93;0.82;;;24.20;90.90;;;;;;4970037;28;20597;-82
2023/07/14 05:21:30;;;;;;;1.58;0.47;;;24.20;91.40;;;;;;4965859;28;20205;-83
2023/07/14 05:23:58;;;;;;;0.85;0.80;;;24.10;91.30;;;;;;4959753;28;20296;-81
2023/07/14 05:26:30;;;;;;;1.35;1.08;;;24.10;91.20;;;;;;4965428;28;20190;-81
2023/07/14 05:28:59;;;;;;;0.65;0.50;;;24.10;91.10;;;;;;4967816;28;20217;-81
2023/07/14 05:31:27;;;;;;;4.10;0.90;;;24.10;91.30;;;;;;4962577;28;20190;-82
2023/07/14 05:33:56;;;;;;;0.20;0.20;;;24.10;91.00;;;;;;4965184;28;20194;-79
2023/07/14 05:36:25;;;;;;;0.30;0.30;;;24.10;90.80;;;;;;4963404;28;20222;-79
2023/07/14 05:38:53;;;;;;;1.63;1.08;;;24.00;91.60;;;;;;4969591;28;20198;-80
2023/07/14 05:41:21;;;;;;;0.75;0.50;;;24.00;92.10;;;;;;4964724;28;20328;-80
2023/07/14 05:43:51;;;;;;;0.20;0.20;;;23.90;92.90;;;;;;4963579;28;20228;-81
2023/07/14 05:46:19;;;;;;;0.70;0.40;;;23.80;93.00;;;;;;4962768;28;20202;-84
2023/07/14 05:48:48;;;;;;;3.95;0.88;;;23.80;93.30;;;;;;4965431;28;20206;-83
2023/07/14 05:51:16;;;;;;;1.40;1.30;;;23.80;92.80;;;;;;4970589;28;20221;-82
2023/07/14 05:53:44;;;;;;;1.20;1.08;;;23.80;92.80;;;;;;4967488;28;20216;-84
2023/07/14 05:56:13;;;;;;;0.20;0.20;;;23.80;92.60;;;;;;4964466;28;20232;-83
2023/07/14 05:58:42;;;;;;;0.20;0.20;;;23.80;92.50;;;;;;4962256;28;20539;-83
2023/07/14 06:01:12;;;;;;;2.38;0.60;;;23.80;92.50;;;;;;4966901;28;20244;-84
2023/07/14 06:03:41;;;;;;;0.50;0.50;;;23.90;92.50;;;;;;4966851;28;20198;-84
2023/07/14 06:06:10;;;;;;;0.68;0.68;;;23.90;92.50;;;;;;4969220;28;20797;-85
2023/07/14 06:08:39;;;;;;;0.45;0.43;;;23.90;92.70;;;;;;4967661;28;20668;-82
2023/07/14 06:11:08;;;;;;;0.95;0.60;;;24.00;93.10;;;;;;4967262;28;20193;-87
2023/07/14 06:13:36;;;;;;;0.52;0.52;;;24.00;93.90;;;;;;4966722;28;20194;-83
2023/07/14 06:16:05;;;;;;;0.52;0.32;;;24.00;95.10;;;;;;4965607;28;20622;-85
2023/07/14 06:18:35;;;;;;;0.57;0.52;;;24.00;95.60;;;;;;4961504;28;20206;-84
2023/07/14 06:21:04;;;;;;;3.60;0.50;;;24.10;95.20;;;;;;4942935;28;20741;-84
2023/07/14 06:23:32;;;;;;;3.90;0.52;;;24.20;95.70;;;;;;4963743;28;20280;-81
2023/07/14 06:26:01;;;;;;;1.92;0.55;;;24.20;96.00;;;;;;4971949;28;20202;-81
2023/07/14 06:28:29;;;;;;;8.63;2.10;;;24.30;96.40;;;;;;4950053;28;20205;-83
2023/07/14 06:30:58;;;;;;;27.17;2.15;;;24.30;96.30;;;;;;4960450;28;20201;-82
2023/07/14 06:33:27;;;;;;;1.17;0.98;;;24.30;96.90;;;;;;4965807;28;20209;-85
2023/07/14 06:35:57;;;;;;;0.90;0.77;;;24.30;97.00;;;;;;4967797;28;20221;-86
2023/07/14 06:38:26;;;;;;;0.32;0.32;;;24.30;97.20;;;;;;4971099;28;20266;-85
2023/07/14 06:40:58;;;;;;;3.22;0.90;;;24.40;97.40;;;;;;4967285;28;20448;-83
2023/07/14 06:43:26;;;;;;;0.40;0.38;;;24.50;97.40;;;;;;4966874;28;20203;-86
2023/07/14 06:45:55;;;;;;;0.40;0.40;;;24.50;97.30;;;;;;4965096;28;20198;-88
2023/07/14 06:48:24;;;;;;;0.40;0.40;;;24.50;97.20;;;;;;4949995;28;20225;-84
2023/07/14 06:50:54;;;;;;;2.88;1.35;;;24.60;97.00;;;;;;4964106;28;20209;-84
2023/07/14 06:53:25;;;;;;;0.57;0.40;;;24.70;96.80;;;;;;4967063;28;20221;-84
2023/07/14 06:55:54;;;;;;;0.55;0.45;;;24.80;96.70;;;;;;4962090;28;20228;-85
2023/07/14 06:58:25;;;;;;;1.58;1.05;;;24.90;98.00;;;;;;4961814;28;20204;-86
2023/07/14 07:00:55;;;;;;;0.75;0.75;;;25.00;96.80;;;;;;4953660;28;20348;-86
2023/07/14 07:03:23;;;;;;;0.40;0.40;;;25.10;96.60;;;;;;4946260;28;20232;-85
2023/07/14 07:05:52;;;;;;;1.48;0.60;;;25.10;96.20;;;;;;4966740;28;20206;-86
2023/07/14 07:08:21;;;;;;;0.30;0.30;;;25.20;96.20;;;;;;4968059;28;20205;-84
2023/07/14 07:10:51;;;;;;;1.20;0.57;;;25.30;96.00;;;;;;4969682;28;20656;-88
2023/07/14 07:13:19;;;;;;;0.35;0.35;;;25.30;95.90;;;;;;4972807;28;20201;-87
2023/07/14 07:15:48;;;;;;;0.47;0.47;;;25.30;95.80;;;;;;4971979;28;20229;-86
2023/07/14 07:18:26;;;;;;;2.78;1.13;;;25.40;95.50;;;;;;4965381;28;20288;-86
2023/07/14 07:20:54;;;;;;;3.20;0.70;;;25.40;95.30;;;;;;4963103;28;20225;-83
2023/07/14 07:23:22;;;;;;;1.60;0.82;;;25.60;95.10;;;;;;4972579;28;20569;-86
2023/07/14 07:25:54;;;;;;;0.50;0.50;;;25.60;94.90;;;;;;4970063;28;20205;-85
2023/07/14 07:28:23;;;;;;;1.80;0.88;;;25.60;94.50;;;;;;4971100;28;20190;-84
2023/07/14 07:30:52;;;;;;;2.40;1.05;;;25.70;94.80;;;;;;4970629;28;20198;-85
2023/07/14 07:33:20;;;;;;;0.75;0.65;;;25.70;94.80;;;;;;4972758;28;20208;-85
2023/07/14 07:35:49;;;;;;;0.50;0.50;;;25.80;95.00;;;;;;4966665;28;20217;-84
2023/07/14 07:38:18;;;;;;;0.20;0.20;;;25.80;94.70;;;;;;4972019;28;20205;-86
2023/07/14 07:40:47;;;;;;;0.63;0.63;;;25.90;94.70;;;;;;4966708;28;20286;-85
2023/07/14 07:43:18;;;;;;;0.57;0.57;;;25.90;94.50;;;;;;4967932;28;20201;-84
2023/07/14 07:45:50;;;;;;;0.77;0.65;;;26.00;94.50;;;;;;4971516;28;20330;-84
2023/07/14 07:48:18;;;;;;;0.65;0.63;;;26.00;94.50;;;;;;4971913;28;20193;-86
2023/07/14 07:50:47;;;;;;;2.05;0.52;;;26.10;94.50;;;;;;4970352;28;20198;-85
2023/07/14 07:53:15;;;;;;;0.95;0.82;;;26.10;94.10;;;;;;4972193;28;20281;-84
2023/07/14 07:55:52;;;;;;;1.85;0.98;;;26.20;93.90;;;;;;4971893;28;20217;-84
2023/07/14 07:58:24;;;;;;;5.45;2.97;;;26.30;94.10;;;;;;4968069;28;20193;-86
2023/07/14 08:00:54;;;;;;;0.22;0.22;;;26.40;93.70;;;;;;4964174;28;20200;-86
2023/07/14 08:03:23;;;;;;;0.70;0.43;;;26.50;93.10;;;;;;4966172;28;20196;-84
2023/07/14 08:05:52;;;;;;;0.50;0.50;;;26.60;93.00;;;;;;4967268;28;20205;-86
2023/07/14 08:08:20;;;;;;;0.80;0.73;;;26.70;92.70;;;;;;4970565;28;20229;-87
2023/07/14 08:10:48;;;;;;;0.30;0.30;;;26.70;92.30;;;;;;4965050;28;20655;-84
2023/07/14 08:13:17;;;;;;;3.45;0.85;;;26.70;92.10;;;;;;4969353;28;20208;-86
2023/07/14 08:15:47;;;;;;;0.20;0.20;;;26.80;92.00;;;;;;4970265;28;20194;-86
2023/07/14 08:18:19;;;;;;;1.25;1.15;;;26.90;91.70;;;;;;4972154;28;20193;-85
2023/07/14 08:20:49;;;;;;;1.00;0.52;;;26.90;91.30;;;;;;4971126;28;20221;-86
2023/07/14 08:23:20;;;;;;;0.73;0.45;;;27.00;90.90;;;;;;4971016;28;20205;-87
2023/07/14 08:25:53;;;;;;;1.05;0.95;;;27.10;90.70;;;;;;4953355;28;20197;-86
2023/07/14 08:28:22;;;;;;;4.95;1.85;;;27.20;90.80;;;;;;4971289;28;20245;-86
2023/07/14 08:30:54;;;;;;;0.68;0.50;;;27.20;90.40;;;;;;4970719;28;20193;-87
2023/07/14 08:33:23;;;;;;;0.80;0.77;;;27.30;90.20;;;;;;4970020;28;20205;-87
2023/07/14 08:35:52;;;;;;;0.80;0.75;;;27.40;90.00;;;;;;4969311;28;20206;-87
2023/07/14 08:38:21;;;;;;;0.73;0.73;;;27.50;88.90;;;;;;4971897;28;20355;-88
2023/07/14 08:40:53;;;;;;;0.40;0.40;;;27.50;87.50;;;;;;4970011;28;20197;-87
2023/07/14 08:43:30;;;;;;;0.68;0.68;;;27.60;86.90;;;;;;4971385;28;20201;-86
2023/07/14 08:46:07;;;;;;;0.82;0.80;;;27.70;87.10;;;;;;4968563;28;20191;-86
2023/07/14 08:48:39;;;;;;;0.20;0.20;;;27.80;87.50;;;;;;4971054;28;20233;-85
2023/07/14 08:51:18;;;;;;;0.40;0.40;;;27.90;87.40;;;;;;4969468;28;20190;-86
2023/07/14 08:53:50;;;;;;;0.30;0.30;;;28.00;87.20;;;;;;4966752;28;20333;-85
2023/07/14 08:56:20;;;;;;;1.00;0.68;;;28.00;86.60;;;;;;4969264;28;20222;-87
2023/07/14 08:58:51;;;;;;;0.77;0.77;;;28.10;86.30;;;;;;4971091;28;20200;-84
2023/07/14 09:01:36;;;;;;;1.35;1.05;;;28.20;86.20;;;;;;4969765;28;20190;-85
2023/07/14 09:04:11;;;;;;;0.50;0.50;;;28.30;85.10;;;;;;4961162;28;20190;-87
2023/07/14 09:06:40;;;;;;;0.40;0.40;;;28.30;85.00;;;;;;4966535;28;20189;-86
2023/07/14 09:09:17;;;;;;;2.17;0.60;;;28.40;84.10;;;;;;4970380;28;22387;-85
2023/07/14 09:12:02;;;;;;;0.90;0.63;;;28.50;83.10;;;;;;4970813;28;20249;-85
2023/07/14 09:14:45;;;;;;;0.38;0.25;;;28.60;81.80;;;;;;4968242;28;20186;-86
2023/07/14 09:17:23;;;;;;;1.05;0.93;;;28.70;82.50;;;;;;4972777;28;20703;-86
2023/07/14 09:20:12;;;;;;;3.10;1.75;;;28.80;82.50;;;;;;4970857;28;20267;-88
2023/07/14 09:22:48;;;;;;;0.52;0.45;;;28.80;80.60;;;;;;4973403;28;20269;-85
2023/07/14 09:25:26;;;;;;;0.90;0.73;;;28.90;80.80;;;;;;4971049;28;20285;-85
2023/07/14 09:27:54;;;;;;;1.55;0.95;;;28.90;79.30;;;;;;4974212;28;20647;-86
2023/07/14 09:30:26;;;;;;;0.73;0.68;;;29.00;79.60;;;;;;4967861;28;20198;-83
2023/07/14 09:33:03;;;;;;;0.65;0.47;;;29.10;79.30;;;;;;4965828;28;20266;-89
2023/07/14 09:35:32;;;;;;;0.20;0.20;;;29.20;79.70;;;;;;4966804;28;20553;-83
2023/07/14 09:38:06;;;;;;;0.50;0.47;;;29.20;78.70;;;;;;4967925;28;20229;-82
2023/07/14 09:40:37;;;;;;;0.68;0.65;;;29.20;77.10;;;;;;4960933;28;20201;-81
2023/07/14 09:43:07;;;;;;;1.17;1.05;;;29.30;75.30;;;;;;4960768;28;20284;-83
2023/07/14 09:45:38;;;;;;;0.30;0.30;;;29.40;75.00;;;;;;4959008;28;20284;-86
2023/07/14 09:48:15;;;;;;;0.80;0.77;;;29.50;74.60;;;;;;4966322;28;20320;-87
2023/07/14 09:50:59;;;;;;;0.73;0.43;;;29.50;73.80;;;;;;4965734;28;20196;-86
2023/07/14 09:53:28;;;;;;;3.25;0.93;;;29.70;75.00;;;;;;4966702;28;20285;-86
2023/07/14 09:56:00;;;;;;;0.35;0.30;;;29.80;74.70;;;;;;4970149;28;20639;-85
2023/07/14 09:58:31;;;;;;;0.93;0.82;;;29.80;74.20;;;;;;4967406;28;20225;-84
2023/07/14 10:01:04;;;;;;;0.85;0.60;;;29.90;74.00;;;;;;4968896;28;20198;-85
2023/07/14 10:03:43;;;;;;;0.25;0.25;;;30.00;72.80;;;;;;4963731;28;20360;-84
2023/07/14 10:06:17;;;;;;;0.75;0.60;;;30.00;72.40;;;;;;4968418;28;20537;-84
2023/07/14 10:08:48;;;;;;;2.50;1.10;;;30.10;72.40;;;;;;4960217;28;20202;-84
2023/07/14 10:11:23;;;;;;;0.45;0.45;;;30.20;72.50;;;;;;4964374;28;20567;-85
2023/07/14 10:13:57;;;;;;;0.32;0.20;;;30.30;72.20;;;;;;4965172;28;20185;-85
2023/07/14 10:16:26;;;;;;;1.33;0.82;;;30.40;72.20;;;;;;4968928;28;20226;-83
2023/07/14 10:18:58;;;;;;;0.75;0.65;;;30.40;71.10;;;;;;4965287;28;20232;-86
2023/07/14 10:21:29;;;;;;;0.30;0.30;;;30.40;69.90;;;;;;4963566;28;20202;-84
2023/07/14 10:24:02;;;;;;;1.20;0.88;;;30.50;70.70;;;;;;4944517;28;20202;-87
2023/07/14 10:26:32;;;;;;;0.55;0.40;;;30.60;70.90;;;;;;4963931;28;20194;-85
2023/07/14 10:29:02;;;;;;;0.38;0.38;;;30.70;70.00;;;;;;4963625;28;20193;-85
2023/07/14 10:31:37;;;;;;;0.30;0.30;;;30.80;69.50;;;;;;4958536;28;20194;-84
2023/07/14 10:34:25;;;;;;;0.45;0.43;;;30.80;69.40;;;;;;4961228;28;20673;-84
2023/07/14 10:37:00;;;;;;;0.40;0.40;;;30.80;65.70;;;;;;4961545;28;20202;-82
2023/07/14 10:39:37;;;;;;;0.43;0.43;;;30.80;65.40;;;;;;4945564;28;20197;-84
2023/07/14 10:42:12;;;;;;;0.93;0.90;;;30.90;65.50;;;;;;4969262;28;20193;-86
2023/07/14 10:44:45;;;;;;;0.57;0.57;;;31.00;66.40;;;;;;4964729;28;20201;-85
2023/07/14 10:47:18;;;;;;;0.50;0.50;;;31.10;67.00;;;;;;4960778;28;20740;-85
2023/07/14 10:49:56;;;;;;;0.80;0.80;;;31.10;64.80;;;;;;4970379;28;20194;-84
2023/07/14 10:52:30;;;;;;;0.57;0.57;;;31.10;64.50;;;;;;4961617;28;20212;-84
2023/07/14 10:55:04;;;;;;;1.00;0.73;;;31.30;65.30;;;;;;4950879;28;20196;-83
2023/07/14 10:57:42;;;;;;;0.47;0.47;;;31.30;65.30;;;;;;4962846;28;20222;-84
2023/07/14 11:00:22;;;;;;;0.30;0.30;;;31.30;64.00;;;;;;4947382;28;20208;-85
2023/07/14 11:03:22;;;;;;;0.55;0.43;;;31.40;64.50;;;;;;4967433;28;20197;-84
2023/07/14 11:05:57;;;;;;;0.50;0.50;;;31.50;63.80;;;;;;4961012;28;20197;-83
2023/07/14 11:08:27;;;;;;;0.75;0.75;;;31.50;64.30;;;;;;4970036;28;20190;-85
2023/07/14 11:11:05;;;;;;;1.23;1.05;;;31.50;64.70;;;;;;4964217;28;20746;-85
2023/07/14 11:13:43;;;;;;;1.40;1.15;;;31.60;64.40;;;;;;4960770;28;20190;-84
2023/07/14 11:16:17;;;;;;;0.38;0.38;;;31.70;64.50;;;;;;4963431;28;20186;-85
2023/07/14 11:18:52;;;;;;;0.40;0.40;;;31.70;64.70;;;;;;4970062;28;20890;-86
2023/07/14 11:21:36;;;;;;;2.53;1.10;;;31.80;65.40;;;;;;4966817;28;20190;-85
2023/07/14 11:24:18;;;;;;;0.50;0.50;;;31.90;65.10;;;;;;4959551;28;20189;-87
2023/07/14 11:27:20;;;;;;;0.47;0.40;;;31.90;64.70;;;;;;4966312;28;20186;-87
2023/07/14 11:29:55;;;;;;;1.30;0.70;;;32.00;64.10;;;;;;4966598;28;20802;-84
2023/07/14 11:32:27;;;;;;;0.82;0.82;;;32.00;63.50;;;;;;4962987;28;20196;-83
2023/07/14 11:35:05;;;;;;;0.30;0.30;;;32.00;64.10;;;;;;4961900;28;20201;-85
2023/07/14 11:37:53;;;;;;;0.50;0.50;;;32.10;64.50;;;;;;4964589;28;20197;-85
2023/07/14 11:40:23;;;;;;;0.52;0.52;;;32.10;63.70;;;;;;4961565;28;20277;-84
2023/07/14 11:42:56;;;;;;;10.75;0.60;;;32.20;63.80;;;;;;4965746;28;20213;-86
2023/07/14 11:45:28;;;;;;;0.90;0.60;;;32.20;64.20;;;;;;4966263;28;20245;-84
2023/07/14 11:47:58;;;;;;;1.48;0.50;;;32.20;64.40;;;;;;4962116;28;20252;-84
2023/07/14 11:50:30;;;;;;;0.43;0.43;;;32.20;64.50;;;;;;4962462;28;20253;-82
2023/07/14 11:53:20;;;;;;;3.17;0.52;;;32.20;64.40;;;;;;4966803;28;20197;-83
2023/07/14 11:55:51;;;;;;;0.60;0.43;;;32.20;63.70;;;;;;4958692;28;20205;-84
2023/07/14 11:58:26;;;;;;;2.25;1.30;;;32.30;64.00;;;;;;4965123;28;20337;-83
2023/07/14 12:00:59;;;;;;;0.40;0.40;;;32.40;64.60;;;;;;4963641;28;21238;-83
2023/07/14 12:03:35;;;;;;;0.65;0.55;;;32.40;64.30;;;;;;4964975;28;20660;-84
2023/07/14 12:06:27;;;;;;;0.32;0.32;;;32.50;64.60;;;;;;4966979;28;20204;-86
2023/07/14 12:09:11;;;;;;;0.65;0.65;;;32.50;64.10;;;;;;4964345;28;20205;-84
2023/07/14 12:12:01;;;;;;;0.32;0.32;;;32.50;63.00;;;;;;4962754;28;20224;-84
2023/07/14 12:14:48;;;;;;;0.35;0.35;;;32.60;62.70;;;;;;4961261;28;20194;-84
2023/07/14 12:17:46;;;;;;;0.80;0.40;;;32.60;62.40;;;;;;4961437;28;20197;-85
2023/07/14 12:20:37;;;;;;;1.13;0.85;;;32.70;62.90;;;;;;4959258;28;20672;-82
2023/07/14 12:23:24;;;;;;;0.40;0.40;;;32.70;62.50;;;;;;4959051;28;20197;-87
2023/07/14 12:26:07;;;;;;;0.75;0.75;;;32.70;61.10;;;;;;4962388;28;20189;-88
2023/07/14 12:28:38;;;;;;;0.40;0.40;;;32.80;61.40;;;;;;4961470;28;20198;-85
2023/07/14 12:31:13;;;;;;;0.53;0.30;;;32.90;61.50;;;;;;4965876;28;20452;-84
2023/07/14 12:33:42;;;;;;;0.30;0.30;;;33.00;61.60;;;;;;4961397;28;20194;-84
2023/07/14 12:36:16;;;;;;;0.32;0.32;;;33.00;61.00;;;;;;4966570;28;20242;-82
2023/07/14 12:38:45;;;;;;;0.30;0.30;;;33.10;61.30;;;;;;4967643;28;20223;-84
2023/07/14 12:41:16;;;;;;;0.30;0.30;;;33.20;61.60;;;;;;4968555;28;20281;-84
2023/07/14 12:43:49;;;;;;;0.75;0.70;;;33.20;61.10;;;;;;4958397;28;20314;-83
2023/07/14 12:46:23;;;;;;;1.48;0.30;;;33.30;60.80;;;;;;4963776;28;20200;-85
2023/07/14 12:48:58;;;;;;;0.50;0.50;;;33.40;60.40;;;;;;4967168;28;20194;-84
2023/07/14 12:51:26;;;;;;;0.95;0.63;;;33.60;60.40;;;;;;4948369;28;20277;-84
2023/07/14 12:54:05;;;;;;;0.30;0.30;;;33.70;60.30;;;;;;4964017;28;20269;-89
2023/07/14 12:56:35;;;;;;;0.68;0.40;;;33.80;60.00;;;;;;4970144;28;20257;-85
2023/07/14 12:59:03;;;;;;;0.47;0.30;;;33.80;59.80;;;;;;4968122;28;20671;-85
2023/07/14 13:01:33;;;;;;;0.55;0.30;;;33.90;59.10;;;;;;4967477;28;20636;-86
2023/07/14 13:04:02;;;;;;;0.47;0.40;;;33.90;58.80;;;;;;4971066;28;20723;-87
2023/07/14 13:06:31;;;;;;;0.30;0.30;;;33.90;58.60;;;;;;4966318;28;20273;-86
2023/07/14 13:09:09;;;;;;;0.20;0.20;;;33.90;58.70;;;;;;4971406;28;20689;-85
2023/07/14 13:11:42;;;;;;;0.35;0.35;;;33.90;58.10;;;;;;4970202;28;20660;-87
2023/07/14 13:14:19;;;;;;;0.63;0.63;;;33.90;58.30;;;;;;4971778;28;20190;-84